createdAt,value
2023-10-12T00:02:28.061Z,10.48
2023-10-12T00:05:01.505Z,9.57
2023-10-12T00:07:35.490Z,9.73
2023-10-12T00:10:12.487Z,7.75
2023-10-12T00:12:45.774Z,8.43
2023-10-12T00:15:26.768Z,13.57
2023-10-12T00:17:59.409Z,14.13
2023-10-12T00:20:32.932Z,7.75
2023-10-12T00:23:00.672Z,12.82
2023-10-12T00:25:27.866Z,8.70
2023-10-12T00:27:54.631Z,12.38
2023-10-12T00:30:22.202Z,12.23
2023-10-12T00:32:49.343Z,10.10
2023-10-12T00:35:18.253Z,11.88
2023-10-12T00:37:45.161Z,9.38
2023-10-12T00:40:42.657Z,7.78
2023-10-12T00:43:13.162Z,10.63
2023-10-12T00:45:40.689Z,8.45
2023-10-12T00:48:16.930Z,9.85
2023-10-12T00:50:48.743Z,8.57
2023-10-12T00:53:23.487Z,9.75
2023-10-12T00:55:52.247Z,11.60
2023-10-12T00:58:23.199Z,11.70
2023-10-12T01:00:53.362Z,11.10
2023-10-12T01:03:36.591Z,10.02
2023-10-12T01:06:12.602Z,8.27
2023-10-12T01:08:44.048Z,8.95
2023-10-12T01:11:19.173Z,8.75
2023-10-12T01:13:48.366Z,9.43
2023-10-12T01:16:25.087Z,7.50
2023-10-12T01:19:01.751Z,7.20
2023-10-12T01:21:30.179Z,10.93
2023-10-12T01:24:03.067Z,7.43
2023-10-12T01:26:32.732Z,7.07
2023-10-12T01:29:01.533Z,10.32
2023-10-12T01:31:29.715Z,8.10
2023-10-12T01:33:59.273Z,8.75
2023-10-12T01:36:31.557Z,9.13
2023-10-12T01:39:15.462Z,7.72
2023-10-12T01:41:42.602Z,7.63
2023-10-12T01:44:11.822Z,7.68
2023-10-12T01:46:42.298Z,9.02
2023-10-12T01:49:12.650Z,10.15
2023-10-12T01:51:45.999Z,8.30
2023-10-12T01:54:13.620Z,10.60
2023-10-12T01:56:40.595Z,8.93
2023-10-12T01:59:08.749Z,7.90
2023-10-12T02:01:36.535Z,7.40
2023-10-12T02:04:05.107Z,8.02
2023-10-12T02:06:32.059Z,9.70
2023-10-12T02:09:11.434Z,8.02
2023-10-12T02:11:46.275Z,10.05
2023-10-12T02:14:13.850Z,13.52
2023-10-12T02:16:54.092Z,7.53
2023-10-12T02:19:32.925Z,7.57
2023-10-12T02:22:02.443Z,6.10
2023-10-12T02:24:29.953Z,6.03
2023-10-12T02:27:01.434Z,8.63
2023-10-12T02:29:31.048Z,11.68
2023-10-12T02:32:00.178Z,7.68
2023-10-12T02:34:28.566Z,11.70
2023-10-12T02:37:09.616Z,5.23
2023-10-12T02:39:43.826Z,8.37
2023-10-12T02:42:17.631Z,7.93
2023-10-12T02:44:56.005Z,5.97
2023-10-12T02:47:31.387Z,8.90
2023-10-12T02:50:16.701Z,7.95
2023-10-12T02:52:48.362Z,8.65
2023-10-12T02:55:26.175Z,10.55
2023-10-12T02:58:00.753Z,8.23
2023-10-12T03:00:44.815Z,11.45
2023-10-12T03:03:39.113Z,8.43
2023-10-12T03:06:09.689Z,9.23
2023-10-12T03:08:48.791Z,8.27
2023-10-12T03:11:20.989Z,7.87
2023-10-12T03:14:14.756Z,7.93
2023-10-12T03:16:45.629Z,12.17
2023-10-12T03:19:25.436Z,10.73
2023-10-12T03:21:52.917Z,7.13
2023-10-12T03:24:30.951Z,8.57
2023-10-12T03:27:03.677Z,6.80
2023-10-12T03:29:30.431Z,10.82
2023-10-12T03:31:58.973Z,9.85
2023-10-12T03:34:35.723Z,8.05
2023-10-12T03:37:14.341Z,9.53
2023-10-12T03:40:00.993Z,6.72
2023-10-12T03:42:28.775Z,9.87
2023-10-12T03:45:15.186Z,9.40
2023-10-12T03:48:03.695Z,9.43
2023-10-12T03:50:35.725Z,7.93
2023-10-12T03:53:07.067Z,9.80
2023-10-12T03:55:35.882Z,6.23
2023-10-12T03:58:08.954Z,12.17
2023-10-12T04:00:49.297Z,10.43
2023-10-12T04:03:36.119Z,7.22
2023-10-12T04:06:24.269Z,10.70
2023-10-12T04:08:56.021Z,8.40
2023-10-12T04:11:42.024Z,8.52
2023-10-12T04:14:41.354Z,9.10
2023-10-12T04:17:10.292Z,7.53
2023-10-12T04:19:43.390Z,8.33
2023-10-12T04:22:26.593Z,9.27
2023-10-12T04:24:57.037Z,7.85
2023-10-12T04:27:32.653Z,7.78
2023-10-12T04:30:01.768Z,8.73
2023-10-12T04:32:47.864Z,10.47
2023-10-12T04:35:33.928Z,8.85
2023-10-12T04:38:09.864Z,8.88
2023-10-12T04:40:38.720Z,8.60
2023-10-12T04:43:08.676Z,9.43
2023-10-12T04:45:57.777Z,7.90
2023-10-12T04:48:32.636Z,10.60
2023-10-12T04:51:08.406Z,13.00
2023-10-12T04:53:59.075Z,9.03
2023-10-12T04:56:27.724Z,9.33
2023-10-12T04:58:58.060Z,11.70
2023-10-12T05:01:42.029Z,8.87
2023-10-12T05:04:27.930Z,11.80
2023-10-12T05:07:13.293Z,8.63
2023-10-12T05:09:40.019Z,7.90
2023-10-12T05:12:07.803Z,10.40
2023-10-12T05:14:34.974Z,12.87
2023-10-12T05:17:02.150Z,9.83
2023-10-12T05:19:29.271Z,11.93
2023-10-12T05:21:59.461Z,9.83
2023-10-12T05:24:26.475Z,10.87
2023-10-12T05:26:58.969Z,10.02
2023-10-12T05:29:26.271Z,11.23
2023-10-12T05:32:19.411Z,10.03
2023-10-12T05:34:47.769Z,10.27
2023-10-12T05:37:28.315Z,10.97
2023-10-12T05:39:56.692Z,8.63
2023-10-12T05:42:24.101Z,9.20
2023-10-12T05:44:52.436Z,12.63
2023-10-12T05:47:29.598Z,9.27
2023-10-12T05:50:00.332Z,13.27
2023-10-12T05:52:27.517Z,9.47
2023-10-12T05:55:00.718Z,12.13
2023-10-12T05:57:31.190Z,12.40
2023-10-12T06:00:01.916Z,12.90
2023-10-12T06:02:30.000Z,10.03
2023-10-12T06:04:58.164Z,16.83
2023-10-12T06:07:25.637Z,11.80
2023-10-12T06:09:54.741Z,12.97
2023-10-12T06:12:26.007Z,14.40
2023-10-12T06:14:57.048Z,12.20
2023-10-12T06:17:32.200Z,14.10
2023-10-12T06:20:12.736Z,13.27
2023-10-12T06:22:39.926Z,13.48
2023-10-12T06:25:19.647Z,12.80
2023-10-12T06:27:46.405Z,12.47
2023-10-12T06:30:20.096Z,12.17
2023-10-12T06:32:48.103Z,14.60
2023-10-12T06:35:25.188Z,14.97
2023-10-12T06:37:58.340Z,11.33
2023-10-12T06:40:26.990Z,12.13
2023-10-12T06:43:14.810Z,18.50
2023-10-12T06:45:56.684Z,12.45
2023-10-12T06:48:31.965Z,10.03
2023-10-12T06:51:04.175Z,15.03
2023-10-12T06:53:35.361Z,14.13
2023-10-12T06:56:21.648Z,13.33
2023-10-12T06:59:12.555Z,15.03
2023-10-12T07:01:49.953Z,13.70
2023-10-12T07:04:29.635Z,15.07
2023-10-12T07:07:02.186Z,12.40
2023-10-12T07:09:47.704Z,10.50
2023-10-12T07:12:16.102Z,11.90
2023-10-12T07:14:54.475Z,14.30
2023-10-12T07:17:33.369Z,14.80
2023-10-12T07:20:00.735Z,15.70
2023-10-12T07:22:30.654Z,11.73
2023-10-12T07:24:58.547Z,12.87
2023-10-12T07:27:25.960Z,12.20
2023-10-12T07:30:09.670Z,13.63
2023-10-12T07:32:40.815Z,13.63
2023-10-12T07:35:12.969Z,13.00
2023-10-12T07:37:43.322Z,13.13
2023-10-12T07:40:20.726Z,14.87
2023-10-12T07:42:48.221Z,11.80
2023-10-12T07:45:16.460Z,13.07
2023-10-12T07:47:47.065Z,15.23
2023-10-12T07:50:19.014Z,9.80
2023-10-12T07:52:49.296Z,16.90
2023-10-12T07:55:18.617Z,23.50
2023-10-12T07:57:47.396Z,26.92
2023-10-12T08:00:14.648Z,49.30
2023-10-12T08:02:49.047Z,47.33
2023-10-12T08:05:25.474Z,41.70
2023-10-12T08:08:02.259Z,38.33
2023-10-12T08:10:40.476Z,32.57
2023-10-12T08:13:26.767Z,19.97
2023-10-12T08:15:55.724Z,15.50
2023-10-12T08:18:42.482Z,13.83
2023-10-12T08:21:24.171Z,14.07
2023-10-12T08:24:05.043Z,11.27
2023-10-12T08:26:48.593Z,14.80
2023-10-12T08:29:23.119Z,14.00
2023-10-12T08:32:13.961Z,13.65
2023-10-12T08:35:04.191Z,15.50
2023-10-12T08:37:38.191Z,14.47
2023-10-12T08:40:18.630Z,14.48
2023-10-12T08:42:59.804Z,19.87
2023-10-12T08:45:30.929Z,13.70
2023-10-12T08:48:03.337Z,10.93
2023-10-12T08:50:52.990Z,11.10
2023-10-12T08:53:23.644Z,13.25
2023-10-12T08:55:53.150Z,14.43
2023-10-12T08:58:40.464Z,14.77
2023-10-12T09:01:11.075Z,13.07
2023-10-12T09:03:40.207Z,12.48
2023-10-12T09:06:21.146Z,12.80
2023-10-12T09:08:48.234Z,11.40
2023-10-12T09:11:15.473Z,10.83
2023-10-12T09:13:46.616Z,10.77
2023-10-12T09:16:15.610Z,10.50
2023-10-12T09:18:58.474Z,9.80
2023-10-12T09:21:30.241Z,13.23
2023-10-12T09:24:06.730Z,12.93
2023-10-12T09:26:35.569Z,11.02
2023-10-12T09:29:09.840Z,11.73
2023-10-12T09:31:38.334Z,12.55
2023-10-12T09:34:13.032Z,10.37
2023-10-12T09:36:45.688Z,15.87
2023-10-12T09:39:17.746Z,13.25
2023-10-12T09:41:56.527Z,9.38
2023-10-12T09:44:35.998Z,15.75
2023-10-12T09:47:10.302Z,11.48
2023-10-12T09:49:44.986Z,11.98
2023-10-12T09:52:15.105Z,8.52
2023-10-12T09:54:50.882Z,12.15
2023-10-12T09:57:24.275Z,13.40
2023-10-12T09:59:54.986Z,11.63
2023-10-12T10:02:29.249Z,11.18
2023-10-12T10:05:13.175Z,15.75
2023-10-12T10:07:55.148Z,11.52
2023-10-12T10:10:34.563Z,10.68
2023-10-12T10:13:06.740Z,11.15
2023-10-12T10:15:45.630Z,13.13
2023-10-12T10:18:17.456Z,10.75
2023-10-12T10:20:47.837Z,11.88
2023-10-12T10:23:20.733Z,10.68
2023-10-12T10:25:57.802Z,10.30
2023-10-12T10:28:28.942Z,10.63
2023-10-12T10:31:00.971Z,13.10
2023-10-12T10:33:30.169Z,9.45
2023-10-12T10:36:00.088Z,10.20
2023-10-12T10:38:34.746Z,10.68
2023-10-12T10:41:08.974Z,10.77
2023-10-12T10:43:40.705Z,9.90
2023-10-12T10:46:12.150Z,13.15
2023-10-12T10:51:12.338Z,13.82
2023-10-12T10:53:39.615Z,11.32
2023-10-12T10:56:16.604Z,8.68
2023-10-12T10:58:47.316Z,10.95
2023-10-12T11:01:15.778Z,11.88
2023-10-12T11:03:47.516Z,9.65
2023-10-12T11:06:22.502Z,10.63
2023-10-12T11:09:15.129Z,8.35
2023-10-12T11:11:54.128Z,9.40
2023-10-12T11:14:25.608Z,11.52
2023-10-12T11:16:55.658Z,10.10
2023-10-12T11:19:24.886Z,11.32
2023-10-12T11:21:55.129Z,10.88
2023-10-12T11:24:24.953Z,8.05
2023-10-12T11:26:59.303Z,9.20
2023-10-12T11:29:27.049Z,7.72
2023-10-12T11:32:11.193Z,8.40
2023-10-12T11:34:45.882Z,9.63
2023-10-12T11:37:16.648Z,9.48
2023-10-12T11:39:53.752Z,9.98
2023-10-12T11:42:21.442Z,9.50
2023-10-12T11:44:50.099Z,9.45
2023-10-12T11:47:25.647Z,11.23
2023-10-12T11:49:59.438Z,10.00
2023-10-12T11:52:31.698Z,13.40
2023-10-12T11:55:08.821Z,14.00
2023-10-12T11:57:38.995Z,10.90
2023-10-12T12:00:22.205Z,8.88
2023-10-12T12:02:59.011Z,9.52
2023-10-12T12:05:27.919Z,12.55
2023-10-12T12:07:55.181Z,8.63
2023-10-12T12:10:39.648Z,10.10
2023-10-12T12:13:10.099Z,8.00
2023-10-12T12:15:37.596Z,10.13
2023-10-12T12:18:15.080Z,11.95
2023-10-12T12:20:45.557Z,10.18
2023-10-12T12:23:13.060Z,12.13
2023-10-12T12:25:40.838Z,10.88
2023-10-12T12:28:09.036Z,11.93
2023-10-12T12:33:15.275Z,8.23
2023-10-12T12:35:42.454Z,13.95
2023-10-12T12:38:28.259Z,8.40
2023-10-12T12:40:56.084Z,8.48
2023-10-12T12:43:23.142Z,12.40
2023-10-12T12:45:50.356Z,9.65
2023-10-12T12:48:17.089Z,10.65
2023-10-12T12:50:49.167Z,8.10
2023-10-12T12:53:19.799Z,11.70
2023-10-12T12:55:47.424Z,11.68
2023-10-12T12:58:16.690Z,10.02
2023-10-12T13:00:47.895Z,9.98
2023-10-12T13:03:16.028Z,10.65
2023-10-12T13:05:42.842Z,7.60
2023-10-12T13:08:12.306Z,8.10
2023-10-12T13:10:39.804Z,10.60
2023-10-12T13:13:07.822Z,9.50
2023-10-12T13:15:53.246Z,10.35
2023-10-12T13:18:20.407Z,8.95
2023-10-12T13:20:48.117Z,14.32
2023-10-12T13:23:16.821Z,7.00
2023-10-12T13:25:43.686Z,9.77
2023-10-12T13:28:11.444Z,11.00
2023-10-12T13:30:38.359Z,10.30
2023-10-12T13:33:07.215Z,8.05
2023-10-12T13:35:43.482Z,11.10
2023-10-12T13:38:11.648Z,9.25
2023-10-12T13:40:42.362Z,10.80
2023-10-12T13:43:18.125Z,9.52
2023-10-12T13:45:50.174Z,9.65
2023-10-12T13:48:22.385Z,9.48
2023-10-12T13:51:18.900Z,9.77
2023-10-12T13:53:47.358Z,9.57
2023-10-12T13:56:14.429Z,9.48
2023-10-12T13:58:42.686Z,12.63
2023-10-12T14:01:16.042Z,12.30
2023-10-12T14:03:46.785Z,10.32
2023-10-12T14:06:14.338Z,8.68
2023-10-12T14:08:42.132Z,12.07
2023-10-12T14:11:15.304Z,10.88
2023-10-12T14:13:42.696Z,9.45
2023-10-12T14:16:11.046Z,10.07
2023-10-12T14:18:42.317Z,10.88
2023-10-12T14:21:16.296Z,10.18
2023-10-12T14:23:48.824Z,10.80
2023-10-12T14:26:19.050Z,9.02
2023-10-12T14:28:52.268Z,10.13
2023-10-12T14:31:23.766Z,8.95
2023-10-12T14:33:53.309Z,10.13
2023-10-12T14:36:20.729Z,12.90
2023-10-12T14:38:48.797Z,12.63
2023-10-12T14:41:18.626Z,12.50
2023-10-12T14:43:48.858Z,12.85
2023-10-12T14:46:19.631Z,11.25
2023-10-12T14:48:51.233Z,8.07
2023-10-12T14:51:21.999Z,9.15
2023-10-12T14:53:51.654Z,10.27
2023-10-12T14:56:28.610Z,10.43
2023-10-12T14:58:56.960Z,8.45
2023-10-12T15:01:29.295Z,10.27
2023-10-12T15:03:56.921Z,8.68
2023-10-12T15:06:23.962Z,8.43
2023-10-12T15:08:54.152Z,9.20
2023-10-12T15:11:21.159Z,10.20
2023-10-12T15:13:50.064Z,10.95
2023-10-12T15:16:17.276Z,9.98
2023-10-12T15:18:44.564Z,9.55
2023-10-12T15:21:28.632Z,10.63
2023-10-12T15:23:56.705Z,8.45
2023-10-12T15:26:24.029Z,9.38
2023-10-12T15:28:52.544Z,8.37
2023-10-12T15:31:24.552Z,9.43
2023-10-12T15:33:51.931Z,12.85
2023-10-12T15:36:19.283Z,11.00
2023-10-12T15:38:46.558Z,12.18
2023-10-12T15:41:13.323Z,10.02
2023-10-12T15:43:40.446Z,15.20
2023-10-12T15:46:10.452Z,9.77
2023-10-12T15:48:37.731Z,9.52
2023-10-12T15:51:05.259Z,11.82
2023-10-12T15:53:33.609Z,11.10
2023-10-12T15:56:01.022Z,8.48
2023-10-12T15:58:29.012Z,8.50
2023-10-12T16:00:56.918Z,9.23
2023-10-12T16:03:24.848Z,12.75
2023-10-12T16:05:53.625Z,8.60
2023-10-12T16:08:22.337Z,8.90
2023-10-12T16:10:53.142Z,11.45
2023-10-12T16:13:19.853Z,11.43
2023-10-12T16:15:47.194Z,9.90
2023-10-12T16:18:14.154Z,8.57
2023-10-12T16:20:41.417Z,7.80
2023-10-12T16:23:08.287Z,8.95
2023-10-12T16:25:35.530Z,7.95
2023-10-12T16:28:03.634Z,8.77
2023-10-12T16:30:35.910Z,9.45
2023-10-12T16:33:03.478Z,10.90
2023-10-12T16:35:30.623Z,10.85
2023-10-12T16:38:01.856Z,8.93
2023-10-12T16:40:31.351Z,12.25
2023-10-12T16:42:58.136Z,9.90
2023-10-12T16:45:26.529Z,10.85
2023-10-12T16:47:53.792Z,11.10
2023-10-12T16:50:20.657Z,7.63
2023-10-12T16:52:50.487Z,10.10
2023-10-12T16:55:18.619Z,8.77
2023-10-12T16:57:46.497Z,9.30
2023-10-12T17:00:17.580Z,8.23
2023-10-12T17:02:46.322Z,8.63
2023-10-12T17:05:20.586Z,10.50
2023-10-12T17:07:47.775Z,9.67
2023-10-12T17:10:26.884Z,9.20
2023-10-12T17:12:54.364Z,7.18
2023-10-12T17:15:22.336Z,8.93
2023-10-12T17:17:51.288Z,6.75
2023-10-12T17:20:18.608Z,9.07
2023-10-12T17:22:47.072Z,10.87
2023-10-12T17:25:14.496Z,8.45
2023-10-12T17:27:44.531Z,10.20
2023-10-12T17:30:12.371Z,7.87
2023-10-12T17:32:42.050Z,8.70
2023-10-12T17:35:15.876Z,11.27
2023-10-12T17:37:43.683Z,10.80
2023-10-12T17:40:11.872Z,8.48
2023-10-12T17:42:38.883Z,12.17
2023-10-12T17:45:10.945Z,11.70
2023-10-12T17:47:41.653Z,12.93
2023-10-12T17:50:16.159Z,12.67
2023-10-12T17:52:44.711Z,10.90
2023-10-12T17:55:12.698Z,11.87
2023-10-12T17:57:39.410Z,10.17
2023-10-12T18:00:11.118Z,9.38
2023-10-12T18:02:39.531Z,11.63
2023-10-12T18:05:10.163Z,12.90
2023-10-12T18:07:37.314Z,9.33
2023-10-12T18:10:05.008Z,9.20
2023-10-12T18:12:31.910Z,9.00
2023-10-12T18:14:59.137Z,10.47
2023-10-12T18:17:26.412Z,11.00
2023-10-12T18:19:56.291Z,8.53
2023-10-12T18:22:24.706Z,13.60
2023-10-12T18:24:54.351Z,12.52
2023-10-12T18:27:21.092Z,10.47
2023-10-12T18:29:47.867Z,11.43
2023-10-12T18:32:16.318Z,11.03
2023-10-12T18:34:46.910Z,11.97
2023-10-12T18:37:13.887Z,10.40
2023-10-12T18:39:41.648Z,11.43
2023-10-12T18:42:10.569Z,9.80
2023-10-12T18:44:37.742Z,13.17
2023-10-12T18:47:06.011Z,10.13
2023-10-12T18:49:32.861Z,12.30
2023-10-12T18:51:59.800Z,11.37
2023-10-12T18:54:27.230Z,11.80
2023-10-12T18:56:54.002Z,11.07
2023-10-12T18:59:21.440Z,10.82
2023-10-12T19:01:51.007Z,10.47
2023-10-12T19:04:18.168Z,10.70
2023-10-12T19:06:49.523Z,9.67
2023-10-12T19:09:16.461Z,18.57
2023-10-12T19:11:43.360Z,11.33
2023-10-12T19:14:11.102Z,13.30
2023-10-12T19:16:39.511Z,9.85
2023-10-12T19:19:08.621Z,11.67
2023-10-12T19:21:38.754Z,12.07
2023-10-12T19:24:07.251Z,9.97
2023-10-12T19:26:34.386Z,9.23
2023-10-12T19:29:03.710Z,11.23
2023-10-12T19:31:31.952Z,10.20
2023-10-12T19:33:58.905Z,14.73
2023-10-12T19:36:26.124Z,12.17
2023-10-12T19:38:52.917Z,12.77
2023-10-12T19:41:20.194Z,10.57
2023-10-12T19:43:48.059Z,11.43
2023-10-12T19:46:16.027Z,10.70
2023-10-12T19:48:45.892Z,11.30
2023-10-12T19:51:14.684Z,12.37
2023-10-12T19:53:47.392Z,9.70
2023-10-12T19:56:16.014Z,12.70
2023-10-12T19:58:45.421Z,12.93
2023-10-12T20:01:15.181Z,12.33
2023-10-12T20:03:46.242Z,14.87
2023-10-12T20:06:13.176Z,11.27
2023-10-12T20:08:40.248Z,12.10
2023-10-12T20:11:07.832Z,11.82
2023-10-12T20:13:35.367Z,11.63
2023-10-12T20:16:06.375Z,13.13
2023-10-12T20:18:33.673Z,10.70
2023-10-12T20:21:00.880Z,11.07
2023-10-12T20:23:28.142Z,10.53
2023-10-12T20:25:55.067Z,11.53
2023-10-12T20:28:24.732Z,10.27
2023-10-12T20:30:53.018Z,11.30
2023-10-12T20:33:21.210Z,15.77
2023-10-12T20:35:49.071Z,11.10
2023-10-12T20:38:21.617Z,13.20
2023-10-12T20:40:49.458Z,12.17
2023-10-12T20:43:17.684Z,12.53
2023-10-12T20:45:55.982Z,8.37
2023-10-12T20:48:23.823Z,12.97
2023-10-12T20:51:09.578Z,7.60
2023-10-12T20:53:37.229Z,8.67
2023-10-12T20:56:09.495Z,8.13
2023-10-12T20:58:43.788Z,9.57
2023-10-12T21:01:31.935Z,9.93
2023-10-12T21:03:59.165Z,8.17
2023-10-12T21:06:28.325Z,11.70
2023-10-12T21:09:02.152Z,9.02
2023-10-12T21:11:33.168Z,10.87
2023-10-12T21:14:05.307Z,8.17
2023-10-12T21:16:33.710Z,8.13
2023-10-12T21:19:21.055Z,6.77
2023-10-12T21:21:51.164Z,6.40
2023-10-12T21:24:19.176Z,8.93
2023-10-12T21:26:47.379Z,7.60
2023-10-12T21:29:23.045Z,7.60
2023-10-12T21:32:02.786Z,6.80
2023-10-12T21:34:32.714Z,8.20
2023-10-12T21:37:03.632Z,9.83
2023-10-12T21:39:36.524Z,6.80
2023-10-12T21:42:06.471Z,9.60
2023-10-12T21:44:33.569Z,7.10
2023-10-12T21:47:04.002Z,8.53
2023-10-12T21:49:34.234Z,6.63
2023-10-12T21:52:01.502Z,8.30
2023-10-12T21:54:28.784Z,7.37
2023-10-12T21:56:55.983Z,6.40
2023-10-12T21:59:23.815Z,7.13
2023-10-12T22:02:04.038Z,6.77
2023-10-12T22:04:36.139Z,7.80
2023-10-12T22:07:07.567Z,8.40
2023-10-12T22:09:44.814Z,9.47
2023-10-12T22:12:14.440Z,7.30
2023-10-12T22:14:59.977Z,8.23
2023-10-12T22:17:28.724Z,8.07
2023-10-12T22:19:57.491Z,8.33
2023-10-12T22:22:24.852Z,8.63
2023-10-12T22:24:54.215Z,9.23
2023-10-12T22:27:22.396Z,9.07
2023-10-12T22:29:49.184Z,7.80
2023-10-12T22:32:16.323Z,7.93
2023-10-12T22:34:43.053Z,8.73
2023-10-12T22:37:14.851Z,10.03
2023-10-12T22:39:43.117Z,7.27
2023-10-12T22:42:10.000Z,7.43
2023-10-12T22:44:36.872Z,9.83
2023-10-12T22:47:04.440Z,8.83
2023-10-12T22:49:34.784Z,8.53
2023-10-12T22:52:01.804Z,13.13
2023-10-12T22:54:34.718Z,13.57
2023-10-12T22:57:06.450Z,8.65
2023-10-12T22:59:33.779Z,9.90
2023-10-12T23:02:01.148Z,8.23
2023-10-12T23:04:28.680Z,9.50
2023-10-12T23:06:55.935Z,9.87
2023-10-12T23:09:24.522Z,8.43
2023-10-12T23:11:56.029Z,10.23
2023-10-12T23:14:25.159Z,11.60
2023-10-12T23:16:53.144Z,9.18
2023-10-12T23:19:37.577Z,10.27
2023-10-12T23:22:23.176Z,8.63
2023-10-12T23:24:50.196Z,10.27
2023-10-12T23:27:17.567Z,12.07
2023-10-12T23:29:46.656Z,9.67
2023-10-12T23:32:15.149Z,10.07
2023-10-12T23:34:45.496Z,10.13
2023-10-12T23:37:13.519Z,12.97
2023-10-12T23:39:46.934Z,14.57
2023-10-12T23:42:15.414Z,9.83
2023-10-12T23:44:51.827Z,10.33
2023-10-12T23:47:39.415Z,12.43
2023-10-12T23:50:10.428Z,9.23
2023-10-12T23:52:53.306Z,10.47
2023-10-12T23:55:30.631Z,9.70
2023-10-12T23:58:02.668Z,10.60
